Time;durP1;ratioP1;P1;durP2;ratioP2;P2;SDS_P1;SDS_P2;PMS_P1;PMS_P2;Temp;Humidity;BMP_temperature;BMP_pressure;BME280_temperature;BME280_humidity;BME280_pressure;Samples;Min_cycle;Max_cycle;Signal;HPM_P1;HPM_P2
2022/05/23 00:00:44;;;;;;;5.53;1.67;;;;;;;18.90;50.32;100806.16;2497300;23;20168;-65
2022/05/23 00:01:45;;;;;;;5.80;1.87;;;;;;;18.27;50.20;100720.53;2496574;23;20418;-65
2022/05/23 00:02:46;;;;;;;8.37;2.20;;;;;;;18.75;50.54;100794.16;2497387;23;20611;-65
2022/05/23 00:03:47;;;;;;;6.87;1.80;;;;;;;18.86;50.42;100816.00;2497381;23;20169;-65
2022/05/23 00:04:48;;;;;;;4.53;1.50;;;;;;;18.77;50.28;100805.66;2497531;23;20838;-65
2022/05/23 00:05:48;;;;;;;3.73;1.87;;;;;;;18.73;50.29;100809.94;2497374;23;20390;-65
2022/05/23 00:06:49;;;;;;;18.07;2.80;;;;;;;18.78;50.67;100818.44;2496745;23;20561;-65
2022/05/23 00:07:50;;;;;;;17.67;3.13;;;;;;;18.42;50.59;100761.91;2497197;23;20163;-65
2022/05/23 00:08:51;;;;;;;13.20;3.00;;;;;;;18.74;50.67;100819.88;2497236;23;20238;-65
2022/05/23 00:09:51;;;;;;;8.13;2.57;;;;;;;18.71;50.21;100820.84;2497033;23;20419;-64
2022/05/23 00:10:52;;;;;;;8.57;2.03;;;;;;;18.71;50.41;100809.63;2497409;23;20154;-64
2022/05/23 00:11:53;;;;;;;6.80;2.33;;;;;;;18.31;50.67;100762.44;2497432;23;20611;-65
2022/05/23 00:12:54;;;;;;;9.73;2.50;;;;;;;17.85;51.01;100696.78;2497122;23;20186;-65
2022/05/23 00:13:54;;;;;;;5.23;1.80;;;;;;;18.63;51.28;100816.88;2497806;23;20377;-65
2022/05/23 00:14:55;;;;;;;6.27;1.80;;;;;;;18.60;50.86;100810.22;2497111;23;20165;-65
2022/05/23 00:15:57;;;;;;;5.73;1.70;;;;;;;18.59;51.29;100810.69;2497636;23;20155;-64
2022/05/23 00:16:58;;;;;;;6.80;1.80;;;;;;;18.58;51.25;100811.94;2496591;23;20190;-64
2022/05/23 00:17:59;;;;;;;4.40;1.77;;;;;;;18.55;51.23;100812.91;2496514;23;20394;-64
2022/05/23 00:19:00;;;;;;;5.93;1.73;;;;;;;18.53;51.18;100813.38;2496088;23;20444;-65
2022/05/23 00:20:00;;;;;;;7.70;1.70;;;;;;;18.50;51.31;100810.75;2496249;23;20159;-65
2022/05/23 00:21:01;;;;;;;4.50;1.70;;;;;;;18.29;51.30;100790.19;2497183;23;20466;-64
2022/05/23 00:22:01;;;;;;;6.23;1.70;;;;;;;18.32;51.39;100803.28;2497535;23;20161;-64
2022/05/23 00:23:02;;;;;;;4.87;1.73;;;;;;;18.42;51.20;100827.19;2497313;23;20239;-64
2022/05/23 00:24:03;;;;;;;3.77;1.80;;;;;;;18.41;51.12;100816.44;2497715;23;20236;-65
2022/05/23 00:25:05;;;;;;;3.23;1.83;;;;;;;18.37;51.21;100815.88;2497210;23;20163;-65
2022/05/23 00:26:05;;;;;;;4.80;1.40;;;;;;;18.33;51.50;100813.28;2496959;23;20229;-64
2022/05/23 00:27:08;;;;;;;3.23;1.70;;;;;;;18.24;51.38;100800.03;2495524;23;20393;-65
2022/05/23 00:28:08;;;;;;;6.00;1.53;;;;;;;18.20;51.46;100795.88;2497203;23;20244;-64
2022/05/23 00:29:09;;;;;;;3.53;1.60;;;;;;;18.29;51.67;100815.44;2496851;23;20377;-64
2022/05/23 00:30:13;;;;;;;3.17;1.70;;;;;;;18.02;51.90;100784.78;2496949;23;20195;-65
2022/05/23 00:31:15;;;;;;;3.57;1.53;;;;;;;18.24;51.98;100816.13;2497256;23;20397;-64
2022/05/23 00:36:12;;;;;;;4.13;1.70;;;;;;;18.13;52.24;100815.09;2497601;23;20357;-65
2022/05/23 00:37:13;;;;;;;7.03;1.47;;;;;;;18.11;52.44;100812.03;2496296;23;20465;-65
2022/05/23 00:38:14;;;;;;;5.07;1.70;;;;;;;18.11;52.70;100821.19;2497208;23;20177;-65
2022/05/23 00:39:15;;;;;;;3.60;1.73;;;;;;;17.97;52.48;100807.13;2496792;23;20216;-65
2022/05/23 00:40:39;;;;;;;6.57;2.00;;;;;;;18.07;52.46;100829.00;2496021;23;20446;-65
2022/05/23 00:43:15;;;;;;;4.33;2.10;;;;;;;17.57;52.14;100753.53;2496944;23;20364;-65
2022/05/23 00:44:19;;;;;;;4.23;1.63;;;;;;;17.99;51.91;100825.03;2508597;23;20454;-65
2022/05/23 00:45:20;;;;;;;10.23;2.60;;;;;;;17.99;51.82;100833.44;2507879;23;20736;-64
2022/05/23 00:46:20;;;;;;;11.03;2.60;;;;;;;18.01;51.88;100839.34;2497066;23;20411;-65
2022/05/23 00:47:25;;;;;;;3.40;1.77;;;;;;;17.98;51.39;100836.72;2496362;23;20555;-64
2022/05/23 00:48:28;;;;;;;8.53;1.80;;;;;;;17.99;51.54;100839.06;2496239;23;20195;-64
2022/05/23 00:49:35;;;;;;;9.77;1.90;;;;;;;17.52;51.70;100765.38;2496349;23;20465;-65
2022/05/23 00:50:39;;;;;;;4.67;2.00;;;;;;;17.98;51.98;100841.06;2496910;23;20445;-65
2022/05/23 00:51:40;;;;;;;6.13;1.57;;;;;;;17.97;52.10;100833.13;2497036;23;20373;-65
2022/05/23 00:52:51;;;;;;;4.47;1.90;;;;;;;17.98;52.31;100839.53;2497446;23;20414;-65
2022/05/23 00:53:55;;;;;;;3.10;1.57;;;;;;;17.58;52.24;100780.28;2497449;23;20181;-65
2022/05/23 00:54:59;;;;;;;3.60;1.30;;;;;;;17.90;52.05;100836.31;2496888;23;20377;-65
2022/05/23 00:56:00;;;;;;;4.73;1.63;;;;;;;17.73;52.45;100823.97;2496676;23;20516;-64
2022/05/23 00:57:01;;;;;;;5.13;1.40;;;;;;;17.51;51.83;100787.00;2495804;23;20446;-65
2022/05/23 00:58:06;;;;;;;5.13;1.83;;;;;;;17.71;51.57;100815.22;2497275;23;20932;-64
2022/05/23 00:59:07;;;;;;;4.40;1.70;;;;;;;17.87;51.93;100837.28;2496901;23;20555;-65
2022/05/23 01:00:10;;;;;;;4.67;1.80;;;;;;;17.33;51.93;100753.47;2496986;23;20444;-65
2022/05/23 01:01:15;;;;;;;6.23;1.80;;;;;;;17.88;52.01;100836.00;2497109;23;20753;-64
2022/05/23 01:02:17;;;;;;;5.30;1.60;;;;;;;17.53;52.05;100799.28;2497316;23;20446;-65
2022/05/23 01:03:19;;;;;;;5.63;1.90;;;;;;;17.87;52.15;100839.28;2496964;23;20383;-65
2022/05/23 01:04:19;;;;;;;5.80;1.90;;;;;;;17.86;51.76;100835.69;2497429;23;20731;-65
2022/05/23 01:05:20;;;;;;;7.40;1.80;;;;;;;17.80;51.99;100828.44;2497122;23;20443;-64
2022/05/23 01:06:21;;;;;;;3.37;1.67;;;;;;;17.82;51.69;100840.72;2497490;23;20163;-64
2022/05/23 01:07:22;;;;;;;5.27;1.60;;;;;;;17.10;51.84;100723.41;2496124;23;20161;-65
2022/05/23 01:08:23;;;;;;;4.97;1.73;;;;;;;17.60;52.12;100808.63;2497333;23;20244;-65
2022/05/23 01:09:26;;;;;;;4.57;1.50;;;;;;;17.80;52.53;100834.81;2496728;23;20631;-64
2022/05/23 01:10:30;;;;;;;5.07;1.57;;;;;;;17.78;52.54;100837.31;2496662;23;20186;-64
2022/05/23 01:11:30;;;;;;;5.03;1.50;;;;;;;17.58;52.32;100809.09;2497030;23;20419;-65
2022/05/23 01:12:31;;;;;;;5.50;1.53;;;;;;;17.73;52.32;100835.94;2497424;23;20426;-65
2022/05/23 01:13:32;;;;;;;4.90;1.60;;;;;;;17.73;52.63;100835.16;2497001;23;20159;-64
2022/05/23 01:14:54;;;;;;;3.20;1.50;;;;;;;17.71;52.60;100832.06;2496525;23;20396;-65
2022/05/23 01:15:55;;;;;;;4.67;1.70;;;;;;;17.55;52.63;100815.63;2488630;23;20392;-65
2022/05/23 01:16:55;;;;;;;5.13;1.57;;;;;;;17.19;52.99;100754.16;2495491;23;20393;-65
2022/05/23 01:17:56;;;;;;;9.87;2.30;;;;;;;17.69;52.80;100826.16;2497001;23;20476;-65
2022/05/23 01:18:57;;;;;;;5.53;2.10;;;;;;;17.71;52.66;100839.69;2495938;23;20269;-64
2022/05/23 01:19:57;;;;;;;5.23;1.87;;;;;;;17.64;52.71;100824.00;2496101;23;20163;-65
2022/05/23 01:21:02;;;;;;;5.40;1.87;;;;;;;17.67;52.65;100833.50;2497128;23;20184;-65
2022/05/23 01:22:12;;;;;;;4.93;1.87;;;;;;;17.06;52.63;100748.78;2497482;23;20549;-65
2022/05/23 01:23:18;;;;;;;5.73;1.73;;;;;;;17.63;52.74;100831.63;2497069;23;20379;-64
2022/05/23 01:24:27;;;;;;;7.23;1.83;;;;;;;17.62;52.42;100831.34;2497287;23;20458;-64
2022/05/23 01:25:42;;;;;;;3.37;1.43;;;;;;;17.04;52.81;100756.09;2497086;23;20436;-65
2022/05/23 01:26:43;;;;;;;5.93;1.60;;;;;;;17.57;52.68;100821.56;2496688;23;20365;-64
2022/05/23 01:27:45;;;;;;;5.60;1.47;;;;;;;17.57;52.64;100823.56;2496687;23;20392;-64
2022/05/23 01:28:46;;;;;;;2.37;1.57;;;;;;;17.52;53.12;100808.97;2497108;23;20194;-65
2022/05/23 01:29:46;;;;;;;4.83;1.70;;;;;;;16.69;52.73;100685.03;2495899;23;20433;-65
2022/05/23 01:30:47;;;;;;;4.73;1.70;;;;;;;17.56;52.87;100811.59;2496390;23;20238;-64
2022/05/23 01:31:47;;;;;;;5.37;1.73;;;;;;;17.49;52.79;100806.34;2496259;23;20230;-65
2022/05/23 01:32:48;;;;;;;6.37;1.80;;;;;;;17.47;52.93;100805.25;2496426;23;20160;-65
2022/05/23 01:33:49;;;;;;;5.53;1.50;;;;;;;17.13;52.84;100748.47;2497150;23;20276;-64
2022/05/23 01:34:49;;;;;;;3.90;1.80;;;;;;;17.56;52.96;100817.19;2496897;23;20491;-65
2022/05/23 01:35:50;;;;;;;4.27;1.50;;;;;;;16.76;52.95;100702.25;2497291;23;20189;-65
2022/05/23 01:36:50;;;;;;;3.67;1.47;;;;;;;16.53;53.09;100663.81;2496551;23;20159;-64
2022/05/23 01:37:51;;;;;;;3.97;1.60;;;;;;;17.50;52.95;100821.91;2496870;23;20166;-65
2022/05/23 01:38:51;;;;;;;5.07;1.50;;;;;;;17.51;53.36;100817.06;2496915;23;20191;-65
2022/05/23 01:39:52;;;;;;;3.23;1.50;;;;;;;17.41;53.50;100810.75;2496231;23;20155;-64
2022/05/23 01:40:55;;;;;;;2.63;1.57;;;;;;;17.35;53.81;100807.00;2497077;23;20162;-64
2022/05/23 01:41:55;;;;;;;4.23;1.43;;;;;;;16.45;53.39;100684.97;2497297;23;20187;-65
2022/05/23 01:42:56;;;;;;;5.17;1.80;;;;;;;17.30;53.59;100805.63;2497017;23;20851;-64
2022/05/23 01:43:57;;;;;;;3.37;1.33;;;;;;;17.17;53.79;100796.66;2497298;23;20230;-65
2022/05/23 01:44:57;;;;;;;5.27;1.70;;;;;;;17.35;53.85;100813.38;2496919;23;20857;-65
2022/05/23 01:45:58;;;;;;;7.27;2.20;;;;;;;17.28;53.84;100804.53;2496491;23;20162;-65
2022/05/23 01:46:58;;;;;;;10.70;2.63;;;;;;;16.80;53.66;100744.84;2495308;23;20238;-65
2022/05/23 01:48:00;;;;;;;10.00;2.63;;;;;;;16.66;53.74;100725.16;2496963;23;20190;-64
2022/05/23 01:49:01;;;;;;;10.40;2.60;;;;;;;17.17;53.76;100802.25;2496758;23;20195;-65
2022/05/23 01:50:01;;;;;;;9.17;2.53;;;;;;;17.10;53.86;100776.59;2496792;23;20492;-65
2022/05/23 01:51:02;;;;;;;10.57;1.90;;;;;;;17.33;53.94;100813.09;2496957;23;20169;-65
2022/05/23 01:52:03;;;;;;;6.83;2.43;;;;;;;16.90;53.77;100748.41;2497265;23;20197;-65
2022/05/23 01:53:04;;;;;;;5.40;2.00;;;;;;;17.34;53.83;100813.84;2496834;23;20212;-64
2022/05/23 01:54:05;;;;;;;6.03;2.50;;;;;;;17.35;53.64;100813.38;2497240;23;20453;-64
2022/05/23 01:55:06;;;;;;;3.10;1.70;;;;;;;17.35;53.74;100818.19;2496587;23;20445;-64
2022/05/23 01:56:07;;;;;;;5.77;1.83;;;;;;;17.34;53.64;100819.44;2497349;23;20402;-64
2022/05/23 01:57:10;;;;;;;4.70;1.80;;;;;;;17.34;53.49;100819.44;2496210;23;20886;-65
2022/05/23 01:58:10;;;;;;;3.90;2.00;;;;;;;16.86;53.86;100761.78;2496263;23;20158;-64
2022/05/23 02:01:49;;;;;;;2.83;1.60;;;;;;;17.13;54.25;100801.66;2496968;23;20369;-65
2022/05/23 02:02:50;;;;;;;2.97;1.67;;;;;;;16.86;54.07;100770.94;2496866;23;20514;-65
2022/05/23 02:03:51;;;;;;;4.17;1.70;;;;;;;17.25;53.79;100825.88;2497129;23;20545;-64
2022/05/23 02:04:53;;;;;;;4.10;1.60;;;;;;;17.27;54.03;100833.81;2496983;23;20154;-65
2022/05/23 02:05:53;;;;;;;3.57;1.60;;;;;;;17.25;53.89;100830.69;2497132;23;20382;-65
2022/05/23 02:06:54;;;;;;;3.07;1.43;;;;;;;17.22;53.94;100826.81;2495942;23;20482;-65
2022/05/23 02:07:56;;;;;;;3.43;1.63;;;;;;;17.21;54.04;100822.47;2496629;23;20619;-65
2022/05/23 02:08:57;;;;;;;7.67;2.27;;;;;;;17.21;54.08;100814.06;2496607;23;20178;-64
2022/05/23 02:09:57;;;;;;;18.63;3.87;;;;;;;17.20;53.95;100818.13;2496506;23;20396;-64
2022/05/23 02:10:58;;;;;;;18.63;3.83;;;;;;;17.17;53.72;100812.69;2496842;23;20534;-65
2022/05/23 02:11:58;;;;;;;17.93;4.00;;;;;;;17.15;53.63;100815.97;2497303;23;20561;-64
2022/05/23 02:13:02;;;;;;;21.10;3.97;;;;;;;17.21;54.12;100819.66;2496783;23;20177;-65
2022/05/23 02:14:03;;;;;;;16.97;3.63;;;;;;;17.08;53.83;100799.50;2497165;23;20162;-64
2022/05/23 02:15:04;;;;;;;14.03;3.07;;;;;;;16.83;54.02;100773.91;2496564;23;20419;-64
2022/05/23 02:16:06;;;;;;;16.30;3.00;;;;;;;17.18;54.21;100819.84;2497234;23;20163;-65
2022/05/23 02:17:13;;;;;;;11.47;2.90;;;;;;;17.14;54.15;100806.00;2495108;23;20893;-64
2022/05/23 02:18:13;;;;;;;8.93;2.43;;;;;;;17.14;53.91;100822.03;2497157;23;20373;-65
2022/05/23 02:19:14;;;;;;;10.70;2.37;;;;;;;17.21;54.04;100821.72;2495685;23;20555;-64
2022/05/23 02:20:15;;;;;;;9.50;2.40;;;;;;;17.20;54.16;100818.13;2495798;23;20160;-65
2022/05/23 02:21:16;;;;;;;7.47;2.30;;;;;;;17.25;54.39;100820.28;2496787;23;20164;-65
2022/05/23 02:22:17;;;;;;;6.73;2.30;;;;;;;16.45;54.22;100684.19;2496912;23;20552;-65
2022/05/23 02:23:17;;;;;;;7.93;2.20;;;;;;;17.21;53.84;100810.50;2496626;23;20394;-64
2022/05/23 02:24:18;;;;;;;6.37;2.00;;;;;;;17.24;54.29;100817.94;2497198;23;20163;-65
2022/05/23 02:25:18;;;;;;;6.37;2.00;;;;;;;17.22;54.13;100823.25;2496927;23;20506;-65
2022/05/23 02:26:19;;;;;;;7.13;2.00;;;;;;;17.26;53.92;100824.63;2497238;23;20499;-64
2022/05/23 02:27:19;;;;;;;4.97;2.30;;;;;;;17.28;53.35;100819.34;2495841;23;20163;-64
2022/05/23 02:28:20;;;;;;;7.53;2.50;;;;;;;17.13;52.05;100804.47;2496887;23;20183;-65
2022/05/23 02:29:22;;;;;;;6.80;2.40;;;;;;;17.34;51.38;100820.25;2496638;23;20665;-65
2022/05/23 02:30:22;;;;;;;6.67;2.20;;;;;;;17.37;52.46;100815.72;2495840;23;20188;-65
2022/05/23 02:31:23;;;;;;;8.20;2.50;;;;;;;17.37;52.83;100816.47;2496167;23;20433;-64
2022/05/23 02:32:24;;;;;;;11.47;2.60;;;;;;;17.42;53.06;100810.25;2497017;23;20215;-65
2022/05/23 02:33:25;;;;;;;12.23;2.93;;;;;;;17.50;53.41;100821.13;2496918;23;20149;-65
2022/05/23 02:34:25;;;;;;;11.10;2.90;;;;;;;17.53;53.25;100823.75;2497092;23;20190;-65
2022/05/23 02:35:26;;;;;;;12.80;3.00;;;;;;;17.06;53.39;100764.81;2496568;23;20666;-64
2022/05/23 02:36:27;;;;;;;13.73;3.00;;;;;;;17.56;53.40;100825.59;2497051;23;20154;-64
2022/05/23 02:37:28;;;;;;;8.67;2.90;;;;;;;17.57;53.30;100820.78;2496033;23;20184;-65
2022/05/23 02:38:28;;;;;;;10.23;2.80;;;;;;;17.63;53.02;100824.47;2496910;23;20373;-65
2022/05/23 02:39:29;;;;;;;8.67;2.60;;;;;;;17.17;53.23;100757.44;2496746;23;20595;-65
2022/05/23 02:40:29;;;;;;;9.63;2.60;;;;;;;17.67;53.38;100823.81;2496598;23;20495;-64
2022/05/23 02:41:30;;;;;;;7.90;2.70;;;;;;;17.71;53.28;100820.84;2496782;23;20178;-65
2022/05/23 02:42:30;;;;;;;8.43;2.70;;;;;;;17.73;53.25;100820.38;2497057;23;20647;-64
2022/05/23 02:43:31;;;;;;;13.50;2.90;;;;;;;17.73;53.09;100813.50;2496572;23;20604;-64
2022/05/23 02:44:31;;;;;;;10.10;2.93;;;;;;;17.23;52.96;100738.75;2497050;23;20150;-65
2022/05/23 02:45:32;;;;;;;15.43;2.93;;;;;;;17.71;52.69;100808.88;2495873;23;20160;-65
2022/05/23 02:46:33;;;;;;;12.83;3.10;;;;;;;17.31;53.08;100762.34;2495847;23;20231;-65
2022/05/23 02:47:34;;;;;;;12.47;2.93;;;;;;;17.75;53.24;100817.88;2495739;23;20396;-64
2022/05/23 02:48:35;;;;;;;11.27;2.97;;;;;;;17.78;53.22;100820.50;2496021;23;20244;-65
2022/05/23 02:49:36;;;;;;;11.73;3.30;;;;;;;17.67;52.97;100800.66;2496628;23;20216;-65
2022/05/23 02:50:36;;;;;;;8.10;3.20;;;;;;;17.57;52.69;100789.94;2496630;23;20421;-64
2022/05/23 02:51:37;;;;;;;10.90;3.40;;;;;;;17.77;52.67;100813.34;2495942;23;20163;-65
2022/05/23 02:52:39;;;;;;;6.63;2.73;;;;;;;17.49;52.46;100771.97;2484482;23;20163;-65
2022/05/23 02:53:40;;;;;;;7.97;2.43;;;;;;;17.51;51.48;100767.41;2496028;23;20152;-64
2022/05/23 02:54:40;;;;;;;7.80;2.10;;;;;;;17.88;52.16;100825.56;2497158;23;20476;-65
2022/05/23 02:55:41;;;;;;;6.20;2.10;;;;;;;17.82;51.25;100820.31;2496759;23;20721;-64
2022/05/23 02:56:41;;;;;;;7.80;2.20;;;;;;;17.91;50.53;100820.25;2496242;23;20187;-65
2022/05/23 02:57:42;;;;;;;4.97;2.53;;;;;;;17.41;50.14;100745.53;2496433;23;20218;-64
2022/05/23 02:58:42;;;;;;;5.73;2.50;;;;;;;17.92;50.21;100831.78;2495896;23;20236;-64
2022/05/23 02:59:43;;;;;;;6.17;2.10;;;;;;;17.96;50.99;100816.81;2483981;23;20191;-65
2022/05/23 03:00:43;;;;;;;5.87;2.23;;;;;;;17.61;50.14;100759.72;2496094;23;20162;-64
2022/05/23 03:03:04;;;;;;;5.67;2.43;;;;;;;17.81;49.75;100769.06;2496539;23;20251;-64
2022/05/23 03:04:04;;;;;;;6.30;2.67;;;;;;;17.40;49.58;100702.72;2497135;23;20422;-65
2022/05/23 03:05:06;;;;;;;4.80;2.27;;;;;;;18.13;49.38;100819.47;2496538;23;20396;-65
2022/05/23 03:06:08;;;;;;;4.73;2.47;;;;;;;17.70;49.41;100743.63;2497163;23;20156;-65
2022/05/23 03:07:08;;;;;;;5.87;2.40;;;;;;;18.16;50.00;100828.94;2495088;23;20386;-64
2022/05/23 03:08:10;;;;;;;4.67;2.40;;;;;;;18.21;50.47;100824.72;2495989;23;20428;-64
2022/05/23 03:09:11;;;;;;;7.67;2.80;;;;;;;18.25;50.58;100823.28;2495559;23;20164;-64
2022/05/23 03:10:13;;;;;;;6.43;2.53;;;;;;;18.32;50.85;100819.31;2483992;23;20740;-65
2022/05/23 03:11:13;;;;;;;5.90;2.93;;;;;;;18.32;49.72;100820.13;2495835;23;20412;-64
2022/05/23 03:12:14;;;;;;;5.30;2.33;;;;;;;18.38;50.17;100825.84;2496810;23;20432;-64
2022/05/23 03:13:14;;;;;;;5.97;2.40;;;;;;;18.33;50.37;100815.28;2496429;23;20191;-65
2022/05/23 03:14:15;;;;;;;6.00;2.37;;;;;;;18.36;49.86;100817.13;2497054;23;20235;-65
2022/05/23 03:15:15;;;;;;;5.43;2.73;;;;;;;18.45;49.56;100823.44;2496552;23;20226;-65
2022/05/23 03:16:16;;;;;;;8.40;2.70;;;;;;;18.49;50.02;100821.22;2497182;23;20221;-64
2022/05/23 03:17:17;;;;;;;5.03;2.50;;;;;;;18.54;49.78;100828.19;2495611;23;20166;-65
2022/05/23 03:18:17;;;;;;;5.43;2.80;;;;;;;18.49;49.72;100818.41;2497060;23;20162;-64
2022/05/23 03:19:18;;;;;;;5.10;2.60;;;;;;;18.59;49.34;100828.31;2496493;23;20585;-64
2022/05/23 03:20:19;;;;;;;12.40;3.83;;;;;;;18.50;48.71;100807.94;2495804;23;20169;-65
2022/05/23 03:27:54;;;;;;;9.87;5.33;;;;;;;18.89;48.88;100812.25;2496615;23;20362;-64
2022/05/23 03:28:55;;;;;;;8.23;4.70;;;;;;;18.87;48.22;100801.50;2496446;23;20857;-65
2022/05/23 03:29:55;;;;;;;8.90;4.47;;;;;;;18.98;48.78;100812.91;2496128;23;20185;-65
2022/05/23 03:30:56;;;;;;;10.60;4.67;;;;;;;19.05;48.78;100820.16;2496715;23;20165;-64
2022/05/23 03:31:57;;;;;;;8.47;4.33;;;;;;;19.00;48.65;100799.16;2496582;23;20530;-64
2022/05/23 03:32:57;;;;;;;7.43;4.60;;;;;;;19.14;48.95;100820.84;2496600;23;20625;-65
2022/05/23 03:33:58;;;;;;;10.97;5.47;;;;;;;19.11;48.38;100813.41;2497132;23;20155;-64
2022/05/23 03:34:58;;;;;;;10.47;5.30;;;;;;;19.15;48.20;100808.34;2507454;23;20579;-65
2022/05/23 03:36:00;;;;;;;10.00;5.60;;;;;;;19.21;47.96;100822.47;2508182;23;20192;-65
2022/05/23 03:37:00;;;;;;;12.33;5.60;;;;;;;19.21;48.01;100819.66;2496065;23;20668;-65
2022/05/23 03:38:01;;;;;;;9.23;5.23;;;;;;;19.17;48.33;100808.63;2496762;23;20716;-65
2022/05/23 03:39:03;;;;;;;9.33;5.30;;;;;;;19.29;48.69;100826.47;2496446;23;20598;-64
2022/05/23 03:40:06;;;;;;;11.27;5.47;;;;;;;19.34;48.88;100817.38;2496465;23;20396;-65
2022/05/23 03:41:09;;;;;;;13.20;4.93;;;;;;;19.38;48.35;100821.50;2496530;23;20422;-65
2022/05/23 03:42:09;;;;;;;8.80;5.10;;;;;;;18.90;47.88;100744.38;2496222;23;20390;-64
2022/05/23 03:43:10;;;;;;;10.03;4.37;;;;;;;19.39;47.18;100822.28;2495833;23;20389;-64
2022/05/23 03:44:11;;;;;;;9.03;4.40;;;;;;;19.42;46.82;100819.28;2496011;23;20190;-65
2022/05/23 03:45:11;;;;;;;8.73;4.70;;;;;;;19.42;46.96;100822.09;2495869;23;20159;-64
2022/05/23 03:46:13;;;;;;;10.33;4.27;;;;;;;19.16;47.00;100775.41;2496868;23;20155;-65
2022/05/23 03:47:14;;;;;;;10.70;5.07;;;;;;;19.54;46.81;100826.59;2495896;23;20198;-65
2022/05/23 03:48:15;;;;;;;9.07;4.67;;;;;;;19.57;47.78;100825.63;2496788;23;20431;-65
2022/05/23 03:49:15;;;;;;;10.33;4.73;;;;;;;19.59;48.20;100825.16;2496223;23;20196;-65
2022/05/23 03:50:16;;;;;;;8.90;4.80;;;;;;;19.60;48.32;100827.44;2496415;23;20152;-65
2022/05/23 03:51:17;;;;;;;8.10;4.30;;;;;;;19.21;47.87;100752.25;2496683;23;20492;-64
2022/05/23 03:52:20;;;;;;;9.50;3.90;;;;;;;19.65;46.71;100820.38;2496127;23;20387;-65
2022/05/23 03:53:20;;;;;;;7.17;3.93;;;;;;;19.65;46.99;100815.50;2495773;23;20648;-65
2022/05/23 03:54:21;;;;;;;9.33;3.67;;;;;;;19.71;47.19;100821.22;2496971;23;20735;-65
2022/05/23 03:55:22;;;;;;;7.83;3.20;;;;;;;18.94;46.94;100699.25;2496373;23;20156;-65
2022/05/23 03:56:23;;;;;;;8.97;3.73;;;;;;;19.21;46.35;100750.22;2496855;23;20162;-65
2022/05/23 03:57:23;;;;;;;6.73;2.87;;;;;;;19.66;45.66;100814.25;2495725;23;20457;-64
2022/05/23 03:58:25;;;;;;;8.03;3.43;;;;;;;19.67;46.00;100817.84;2496857;23;20160;-65
2022/05/23 03:59:27;;;;;;;7.60;3.23;;;;;;;19.59;46.16;100799.84;2496671;23;20152;-64
2022/05/23 04:00:27;;;;;;;10.23;3.23;;;;;;;19.08;46.40;100718.84;2495534;23;20400;-65
2022/05/23 04:01:28;;;;;;;5.77;2.73;;;;;;;19.77;46.19;100816.44;2494594;23;20380;-65
2022/05/23 04:02:29;;;;;;;6.30;3.03;;;;;;;19.61;45.98;100797.31;2496674;23;20520;-65
2022/05/23 04:03:30;;;;;;;7.53;3.03;;;;;;;19.83;45.97;100820.09;2496698;23;20824;-65
2022/05/23 04:04:31;;;;;;;7.97;2.90;;;;;;;19.90;45.69;100814.09;2497005;23;20379;-65
2022/05/23 04:05:33;;;;;;;8.27;2.83;;;;;;;19.87;45.43;100806.63;2496452;23;20714;-65
2022/05/23 04:06:35;;;;;;;6.03;2.90;;;;;;;19.53;45.42;100749.16;2495447;23;20854;-65
2022/05/23 04:07:36;;;;;;;4.27;2.50;;;;;;;19.92;45.63;100808.72;2495465;23;20155;-65
2022/05/23 04:08:37;;;;;;;7.03;2.90;;;;;;;19.23;45.84;100711.19;2496468;23;20781;-65
2022/05/23 04:09:37;;;;;;;9.10;3.13;;;;;;;20.05;45.42;100815.53;2496515;23;20391;-65
2022/05/23 04:10:39;;;;;;;5.10;2.77;;;;;;;20.09;45.76;100813.34;2496184;23;20207;-65
2022/05/23 04:11:39;;;;;;;6.47;3.00;;;;;;;20.12;45.73;100823.56;2496601;23;20184;-65
2022/05/23 04:12:40;;;;;;;6.30;2.53;;;;;;;20.16;45.88;100821.34;2496765;23;20393;-65
2022/05/23 04:13:40;;;;;;;7.67;2.63;;;;;;;20.22;45.97;100815.78;2496520;23;20156;-65
2022/05/23 04:14:41;;;;;;;6.60;2.63;;;;;;;20.28;45.38;100811.00;2496661;23;20228;-64
2022/05/23 04:15:41;;;;;;;6.60;2.83;;;;;;;20.38;45.01;100818.78;2496395;23;20495;-65
2022/05/23 04:16:49;;;;;;;5.73;2.43;;;;;;;20.41;45.16;100808.59;2496406;23;20233;-65
2022/05/23 04:17:49;;;;;;;5.33;2.63;;;;;;;20.45;44.84;100814.75;2496396;23;20534;-65
2022/05/23 04:18:50;;;;;;;6.87;2.60;;;;;;;20.34;44.70;100795.72;2496635;23;20383;-65
2022/05/23 04:19:50;;;;;;;5.17;2.43;;;;;;;20.34;44.93;100783.69;2495390;23;20152;-65
2022/05/23 04:20:52;;;;;;;5.90;2.70;;;;;;;20.49;44.32;100804.84;2495993;23;20160;-65
2022/05/23 04:21:52;;;;;;;5.63;2.83;;;;;;;20.30;44.22;100783.91;2496682;23;20232;-65
2022/05/23 04:22:53;;;;;;;6.53;2.67;;;;;;;20.47;44.55;100806.59;2496572;23;20383;-65
2022/05/23 04:23:53;;;;;;;5.33;2.77;;;;;;;20.44;44.74;100804.78;2496766;23;20163;-65
2022/05/23 04:24:54;;;;;;;4.87;2.53;;;;;;;20.28;44.15;100789.25;2496573;23;20616;-65
2022/05/23 04:25:54;;;;;;;5.17;2.60;;;;;;;20.37;44.40;100811.59;2496893;23;20210;-65
2022/05/23 04:26:57;;;;;;;7.40;2.53;;;;;;;20.19;44.70;100772.53;2496139;23;20569;-64
2022/05/23 04:27:57;;;;;;;6.70;2.57;;;;;;;20.15;44.18;100776.81;2496515;23;20154;-64
2022/05/23 04:28:58;;;;;;;8.10;2.43;;;;;;;20.48;43.76;100803.31;2496137;23;20422;-65
2022/05/23 04:29:58;;;;;;;8.80;2.63;;;;;;;20.50;43.85;100800.75;2496268;23;20156;-65
2022/05/23 04:31:00;;;;;;;7.60;2.50;;;;;;;20.55;43.90;100808.47;2496515;23;20157;-65
2022/05/23 04:32:00;;;;;;;5.90;2.40;;;;;;;20.51;43.89;100802.28;2496850;23;20302;-65
2022/05/23 04:35:39;;;;;;;5.97;2.50;;;;;;;20.09;44.33;100739.41;2496327;23;20366;-65
2022/05/23 04:36:40;;;;;;;5.43;2.47;;;;;;;20.02;43.83;100722.94;2496237;23;20390;-65
2022/05/23 04:37:44;;;;;;;6.37;2.53;;;;;;;20.55;43.73;100797.22;2496278;23;20182;-65
2022/05/23 04:38:45;;;;;;;6.37;2.57;;;;;;;20.57;43.54;100788.28;2496465;23;20249;-65
2022/05/23 04:39:45;;;;;;;6.03;2.73;;;;;;;20.62;43.82;100796.00;2496148;23;20433;-65
2022/05/23 04:40:46;;;;;;;6.07;2.13;;;;;;;20.64;43.74;100794.25;2496693;23;20153;-64
2022/05/23 04:41:47;;;;;;;8.03;2.50;;;;;;;20.68;43.69;100799.66;2495128;23;20640;-65
2022/05/23 04:42:48;;;;;;;6.47;2.70;;;;;;;20.03;43.60;100705.56;2495957;23;20801;-64
2022/05/23 04:43:49;;;;;;;6.43;2.13;;;;;;;20.64;43.47;100796.28;2493498;23;20232;-64
2022/05/23 04:44:51;;;;;;;6.47;2.10;;;;;;;20.59;43.53;100794.97;2479766;23;20166;-64
2022/05/23 04:45:51;;;;;;;4.43;2.13;;;;;;;20.58;43.71;100792.63;2489766;23;20161;-65
2022/05/23 04:49:49;;;;;;;5.83;2.23;;;;;;;19.95;43.50;100695.25;2495278;23;20796;-65
2022/05/23 04:50:50;;;;;;;6.03;2.40;;;;;;;20.51;43.49;100799.47;2496725;23;20454;-64
2022/05/23 04:51:50;;;;;;;13.77;2.87;;;;;;;20.44;43.85;100788.66;2496162;23;20383;-65
2022/05/23 04:52:52;;;;;;;10.63;2.57;;;;;;;20.42;44.38;100790.44;2494399;23;20617;-65
2022/05/23 04:53:53;;;;;;;6.60;2.50;;;;;;;20.50;44.11;100788.69;2491248;23;20157;-66
2022/05/23 04:54:53;;;;;;;4.83;2.50;;;;;;;20.50;43.99;100780.25;2482522;23;20877;-66
2022/05/23 04:55:54;;;;;;;7.60;2.23;;;;;;;20.58;44.23;100787.75;2495000;23;20188;-66
2022/05/23 04:56:54;;;;;;;6.90;2.80;;;;;;;20.62;43.87;100793.19;2492349;23;20193;-65
2022/05/23 04:57:58;;;;;;;4.93;2.43;;;;;;;20.30;43.82;100749.34;2492227;23;20154;-65
2022/05/23 04:58:59;;;;;;;7.40;2.70;;;;;;;20.50;43.65;100788.69;2493871;23;20234;-65
2022/05/23 05:00:02;;;;;;;5.70;2.40;;;;;;;20.04;43.68;100726.00;2496571;23;20390;-65
2022/05/23 05:01:03;;;;;;;5.57;2.23;;;;;;;20.39;43.50;100775.31;2495606;23;20199;-66
2022/05/23 05:02:04;;;;;;;5.40;2.20;;;;;;;20.46;43.75;100783.31;2496121;23;20710;-66
2022/05/23 05:03:06;;;;;;;5.53;2.60;;;;;;;20.52;44.03;100794.63;2496285;23;20153;-65
2022/05/23 05:04:06;;;;;;;8.33;2.37;;;;;;;20.48;43.66;100785.63;2496902;23;20728;-65
2022/05/23 05:05:08;;;;;;;4.50;2.40;;;;;;;20.51;43.83;100790.25;2495343;23;20400;-65
2022/05/23 05:06:09;;;;;;;5.50;2.33;;;;;;;20.32;43.73;100753.22;2496556;23;20155;-65
2022/05/23 05:07:09;;;;;;;7.53;2.40;;;;;;;20.53;43.69;100782.84;2496110;23;20898;-65